Stations météo

réclame
Mon MeteoGroup
Pian Rosa, Italie (16052): Température de l'air & dewpoint: 09.11.2018 22:00:00 - 15.11.2018 22:00:00 (CET)Pian Rosa, Italie (16052): Vitesse du vent: 09.11.2018 22:00:00 - 15.11.2018 22:00:00 (CET)Pian Rosa, Italie (16052): Direction du vent: 09.11.2018 22:00:00 - 15.11.2018 22:00:00 (CET)Pian Rosa, Italie (16052): visibility: 09.11.2018 22:00:00 - 15.11.2018 22:00:00 (CET)Pian Rosa, Italie (16052): Ensoleillement: 09.11.2018 22:00:00 - 15.11.2018 22:00:00 (CET)
Date & Time tt [°C] td [°C] ff [km/h] ff [knt] dd vv [km] sd [min]
15.11.2018 22:00:00 -2,2 -27,0 4 2 - 10 -
15.11.2018 21:00:00 -2,2 -27,8 0 0 N 10 -
15.11.2018 20:00:00 -2,6 -29,1 0 0 N 10 -
15.11.2018 19:00:00 -2,2 -29,8 9 5 E 10 -
15.11.2018 18:00:00 -1,8 -29,5 9 5 E 10 36
15.11.2018 17:00:00 -1,2 -29,0 0 0 N 80 60
15.11.2018 16:00:00 -0,8 -28,7 0 0 N 80 60
15.11.2018 15:00:00 0,0 -26,1 0 0 N 80 60
15.11.2018 14:00:00 -0,4 -26,4 0 0 N 80 -
15.11.2018 13:00:00 -0,4 -28,4 9 5 E 80 60
15.11.2018 12:00:00 -1,0 -28,8 18 10 E 80 60
15.11.2018 11:00:00 -1,0 -28,8 28 15 E 80 60
15.11.2018 10:00:00 -2,0 -29,6 0 0 N 80 24
15.11.2018 09:00:00 -2,2 -29,8 22 12 SSE 80 0
15.11.2018 08:00:00 -2,6 -30,0 9 5 SSE 80 0
15.11.2018 07:00:00 -2,4 -29,9 0 0 N 30 0
15.11.2018 06:00:00 -2,6 -30,0 0 0 N 10 -
15.11.2018 05:00:00 -2,8 -30,0 0 0 N 10 -
15.11.2018 04:00:00 -2,2 -29,8 0 0 N 10 -
15.11.2018 03:00:00 -1,8 -29,5 0 0 N 10 -
15.11.2018 02:00:00 -1,6 -29,3 0 0 N 10 -
15.11.2018 01:00:00 -1,4 -29,1 0 0 N 10 -
15.11.2018 00:00:00 -1,8 -29,5 0 0 N 10 -
14.11.2018 23:00:00 -2,0 -27,7 0 0 N 10 -
14.11.2018 22:00:00 -2,2 -23,3 0 0 N 10 -
14.11.2018 21:00:00 -1,6 -22,2 18 10 ENE 10 -
14.11.2018 20:00:00 -1,4 -22,1 18 10 ENE 10 -
14.11.2018 19:00:00 -1,2 -20,7 18 10 ENE 10 -
14.11.2018 18:00:00 -1,4 -21,5 18 10 ENE 10 42
14.11.2018 17:00:00 -1,4 -21,5 13 7 E 60 60
14.11.2018 16:00:00 -1,0 -21,1 18 10 ENE 80 60
14.11.2018 15:00:00 -0,8 -21,6 9 5 ENE 80 60
14.11.2018 14:00:00 -0,6 -22,7 15 8 ENE 80 60
14.11.2018 13:00:00 0,0 -22,9 9 5 E 80 60
14.11.2018 12:00:00 0,0 -24,4 9 5 E 80 60
14.11.2018 11:00:00 -0,6 -26,6 18 10 E 80 60
14.11.2018 10:00:00 -0,8 -28,7 18 10 E 80 30
14.11.2018 09:00:00 -1,0 -28,8 18 10 E 60 -
14.11.2018 08:00:00 -1,8 -29,5 28 15 E 60 -
14.11.2018 07:00:00 -1,8 -29,5 28 15 E 30 -
14.11.2018 06:00:00 -2,6 -30,0 9 5 ENE 10 -
14.11.2018 05:00:00 -2,6 -30,0 4 2 - 10 -
14.11.2018 04:00:00 -2,4 -28,0 0 0 N 10 -
14.11.2018 03:00:00 -2,6 -30,0 0 0 N 10 -
14.11.2018 02:00:00 -2,4 -29,9 0 0 N 10 -
14.11.2018 01:00:00 -2,2 -29,8 0 0 N 10 -
14.11.2018 00:00:00 -2,0 -29,6 9 5 ENE 10 -
13.11.2018 23:00:00 -2,4 -17,2 15 8 ENE 10 -
13.11.2018 22:00:00 -2,6 -17,0 15 8 ENE 10 -
13.11.2018 21:00:00 -1,8 -18,8 9 5 ENE 10 -
13.11.2018 20:00:00 -1,4 -11,3 18 10 E 10 -
13.11.2018 19:00:00 -2,2 -10,7 28 15 E 10 -
13.11.2018 18:00:00 -2,2 -8,7 28 15 E 10 36
13.11.2018 17:00:00 -1,0 -10,6 0 0 N 60 60
13.11.2018 16:00:00 -0,8 -10,4 0 0 N 60 54
13.11.2018 15:00:00 -0,8 -9,4 9 5 WNW 50 30
13.11.2018 14:00:00 -0,4 -7,9 8 4 W 30 60
13.11.2018 13:00:00 -0,6 -7,8 9 5 S 40 60
13.11.2018 12:00:00 -1,4 -4,7 5 3 S 40 60
13.11.2018 11:00:00 -2,4 -5,9 28 15 S 40 60
13.11.2018 10:00:00 -2,6 -7,0 28 15 SSW 40 0
13.11.2018 09:00:00 -2,4 -7,3 37 20 SSW 30 -
13.11.2018 08:00:00 -2,6 -8,5 37 20 SSW 30 -
13.11.2018 07:00:00 -2,6 -8,7 28 15 W 10 -
13.11.2018 06:00:00 -2,0 -9,2 37 20 SE 10 -
13.11.2018 05:00:00 -2,5 -9,6 37 20 SE 10 -
13.11.2018 04:00:00 -2,5 -9,8 46 25 SE 10 -
13.11.2018 03:00:00 -1,8 -9,2 46 25 S 10 -
13.11.2018 02:00:00 -1,4 -9,0 55 30 S 10 -
13.11.2018 01:00:00 -1,4 -7,7 52 28 SSE 10 -
13.11.2018 00:00:00 -1,6 -7,5 46 25 SSE 10 -
12.11.2018 23:00:00 -1,6 -6,7 55 30 S 10 -
12.11.2018 22:00:00 -1,4 -3,3 46 25 SE 10 -
12.11.2018 21:00:00 -1,8 -3,5 46 25 SSE 10 -
12.11.2018 20:00:00 -1,4 -5,4 55 30 S 10 -
12.11.2018 19:00:00 -1,2 -8,0 55 30 S 10 -
12.11.2018 18:00:00 -0,8 -8,7 46 25 S 20 -
12.11.2018 17:00:00 -0,6 -7,4 65 35 S 40 60
12.11.2018 16:00:00 -0,6 -6,4 65 35 S 40 60
12.11.2018 15:00:00 -0,6 -4,5 55 30 S 40 60
12.11.2018 14:00:00 -1,8 -5,1 28 15 SSE 70 60
12.11.2018 13:00:00 -1,8 -5,1 37 20 SSE 70 60
12.11.2018 12:00:00 -1,8 -6,2 28 15 SSE 70 60
12.11.2018 11:00:00 -1,8 -6,2 41 22 SSE 70 60
12.11.2018 10:00:00 -2,0 -6,2 34 18 S 70 24
12.11.2018 09:00:00 -1,4 -5,4 52 28 S 50 -
12.11.2018 08:00:00 -1,4 -5,3 65 35 S 50 -
12.11.2018 07:00:00 -1,4 -5,3 55 30 S 30 -
12.11.2018 06:00:00 -1,6 -5,6 55 30 S 10 -
12.11.2018 05:00:00 -1,8 -6,3 37 20 S 10 -
12.11.2018 04:00:00 -2,0 -6,5 46 25 S 10 -
12.11.2018 03:00:00 -2,2 -6,0 46 25 S 10 -
12.11.2018 02:00:00 -3,0 -7,2 46 25 S 10 -
12.11.2018 01:00:00 -2,6 -8,5 37 20 S 10 -
12.11.2018 00:00:00 -3,4 -12,3 46 25 S 10 -
11.11.2018 23:00:00 -3,4 -12,8 37 20 S 10 -
11.11.2018 22:00:00 -3,2 -13,4 37 20 S 10 -
11.11.2018 21:00:00 -2,6 -13,7 46 25 S 10 -
11.11.2018 20:00:00 -3,0 -12,5 46 25 S 10 -
11.11.2018 19:00:00 -3,8 -11,7 55 30 S 10 -
11.11.2018 18:00:00 -3,8 -11,3 37 20 S 30 18
11.11.2018 17:00:00 -3,4 -11,8 46 25 SSW 50 48
11.11.2018 16:00:00 -3,0 -11,7 28 15 S 50 60
11.11.2018 15:00:00 -3,0 -11,0 41 22 S 50 60
11.11.2018 14:00:00 -3,2 -10,7 34 18 S 50 60
11.11.2018 13:00:00 -3,0 -12,0 37 20 S 50 54
11.11.2018 12:00:00 -3,2 -9,4 37 20 S 50 60
11.11.2018 11:00:00 -3,8 -3,8 9 5 S 50 18
11.11.2018 10:00:00 -3,8 -6,6 18 10 SW 0,8 0
11.11.2018 09:00:00 -4,2 -5,7 18 10 SW 0,8 -
11.11.2018 08:00:00 -4,2 -5,9 18 10 SSW 0,8 -
11.11.2018 07:00:00 -4,4 -5,9 46 25 S 0,8 -
11.11.2018 06:00:00 -4,6 -5,8 55 30 S 0,8 0
11.11.2018 05:00:00 -4,8 -5,1 46 25 S 0,1 -
11.11.2018 04:00:00 -5,0 -5,3 28 15 S 0,1 -
11.11.2018 03:00:00 -5,2 -5,5 18 10 S 0,1 -
11.11.2018 02:00:00 -5,2 -5,2 37 20 SSW 0,1 -
11.11.2018 01:00:00 -5,2 -5,2 46 25 S 0,1 -
11.11.2018 00:00:00 -5,0 -5,0 37 20 S 0,1 -
10.11.2018 23:00:00 -5,0 -5,0 34 18 S 0,1 -
10.11.2018 22:00:00 -5,0 -5,0 34 18 S 0,1 -
10.11.2018 21:00:00 -4,8 -4,8 28 15 S 0,1 -
10.11.2018 20:00:00 -4,8 -4,8 28 15 S 0,1 -
10.11.2018 19:00:00 -5,0 -5,0 37 20 S 0,1 -
10.11.2018 18:00:00 -5,8 -5,8 37 20 S 0,1 0
10.11.2018 17:00:00 -5,0 -5,3 28 15 S 0,1 0
10.11.2018 16:00:00 -5,4 -5,4 28 15 S 0,1 0
10.11.2018 15:00:00 -4,8 -4,8 28 15 SSW 0,1 0
10.11.2018 14:00:00 -4,8 -4,8 28 15 SSW 0,1 0
10.11.2018 13:00:00 -4,8 -4,8 37 20 S 0,1 0
10.11.2018 12:00:00 -4,8 -4,8 46 25 S 0,2 0
10.11.2018 11:00:00 -5,0 -5,0 15 8 S 0,2 0
10.11.2018 10:00:00 -5,0 -5,0 34 18 S 0,2 0
10.11.2018 09:00:00 -5,4 -5,4 28 15 S 0,8 0
10.11.2018 08:00:00 -5,8 -5,8 28 15 SSE 0,2 -
10.11.2018 07:00:00 -5,4 -5,4 18 10 S 0,1 -
10.11.2018 06:00:00 -5,6 -5,6 28 15 S 0,5 -
10.11.2018 05:00:00 -5,8 -5,8 28 15 S 0,8 -
10.11.2018 04:00:00 -5,8 -5,8 28 15 S 0,8 -
10.11.2018 03:00:00 -6,0 -6,0 55 30 S 0,1 -
10.11.2018 02:00:00 -5,2 -5,2 55 30 S 0,1 -
10.11.2018 01:00:00 -5,2 -5,2 55 30 S 0,1 -
10.11.2018 00:00:00 -5,6 -5,6 37 20 S 0,8 -
09.11.2018 23:00:00 -5,6 -5,6 46 25 SSE 0,1 -
09.11.2018 22:00:00 -5,8 -6,5 37 20 SSE 0,8 -

tt = Température de l'air
td = dewpoint
ff = Vitesse du vent
dd = Direction du vent
vv = visibility
sd = Ensoleillement

stations d'obs. à proximité